Time;durP1;ratioP1;P1;durP2;ratioP2;P2;SDS_P1;SDS_P2;PMS_P1;PMS_P2;Temp;Humidity;BMP_temperature;BMP_pressure;BME280_temperature;BME280_humidity;BME280_pressure;Samples;Min_cycle;Max_cycle;Signal;HPM_P1;HPM_P2
2023/06/24 00:00:37;;;;;;;38.58;24.80;;;;;;;32.19;82.82;97346.97;5016419;28;20053;-70
2023/06/24 00:03:07;;;;;;;37.15;23.25;;;;;;;32.18;82.81;97361.03;5014753;28;20053;-71
2023/06/24 00:05:38;;;;;;;32.67;23.02;;;;;;;32.15;82.83;97359.81;5021754;28;20053;-70
2023/06/24 00:08:11;;;;;;;38.38;23.17;;;;;;;32.13;83.03;97361.34;5026920;28;20057;-70
2023/06/24 00:10:41;;;;;;;33.97;22.55;;;;;;;32.09;83.50;97359.31;5017290;28;20049;-70
2023/06/24 00:13:10;;;;;;;36.38;22.73;;;;;;;32.05;83.26;97368.59;4997148;28;20050;-71
2023/06/24 00:15:42;;;;;;;36.28;23.23;;;;;;;32.06;83.20;97384.69;5014557;28;20062;-71
2023/06/24 00:18:13;;;;;;;34.10;23.88;;;;;;;32.03;83.58;97379.94;5015555;28;20750;-71
2023/06/24 00:20:43;;;;;;;36.70;23.30;;;;;;;32.06;83.16;97390.16;5016908;28;20588;-71
2023/06/24 00:23:17;;;;;;;35.15;22.80;;;;;;;31.99;82.72;97395.53;4992988;28;20129;-70
2023/06/24 00:25:47;;;;;;;31.65;21.23;;;;;;;32.02;83.23;97394.00;4997848;28;20065;-71
2023/06/24 00:28:16;;;;;;;35.80;21.98;;;;;;;32.01;82.67;97401.44;5010096;28;20130;-71
2023/06/24 00:30:46;;;;;;;32.42;22.60;;;;;;;31.99;82.62;97402.97;4987616;28;20048;-71
2023/06/24 00:33:20;;;;;;;28.80;20.98;;;;;;;32.01;82.69;97401.44;4978546;28;20045;-71
2023/06/24 00:35:50;;;;;;;36.90;21.98;;;;;;;31.98;82.55;97401.38;5002789;28;20052;-69
2023/06/24 00:38:20;;;;;;;31.95;21.30;;;;;;;32.01;82.75;97406.13;4995093;28;20054;-71
2023/06/24 00:40:50;;;;;;;31.80;22.45;;;;;;;32.00;82.54;97401.78;4979594;28;20085;-69
2023/06/24 00:43:19;;;;;;;31.75;21.13;;;;;;;32.02;82.48;97400.28;4975636;28;20072;-70
2023/06/24 00:45:49;;;;;;;39.55;21.40;;;;;;;32.06;82.62;97403.88;4995966;28;20100;-71
2023/06/24 00:48:21;;;;;;;30.08;21.33;;;;;;;32.11;82.42;97415.72;5002340;28;20061;-70
2023/06/24 00:50:51;;;;;;;42.13;22.65;;;;;;;32.13;82.54;97416.16;4981849;28;20046;-70
2023/06/24 00:53:24;;;;;;;29.20;19.60;;;;;;;32.16;82.65;97408.00;4975481;28;20062;-69
2023/06/24 00:56:02;;;;;;;29.95;20.42;;;;;;;32.21;82.18;97412.38;4995646;28;20049;-71
2023/06/24 00:58:36;;;;;;;33.28;21.02;;;;;;;32.24;82.20;97414.38;4960089;28;20112;-70
2023/06/24 01:01:08;;;;;;;33.78;21.73;;;;;;;32.27;82.11;97421.84;4975187;28;20713;-70
2023/06/24 01:03:40;;;;;;;27.02;20.15;;;;;;;32.28;81.64;97410.53;4995358;28;20891;-70
2023/06/24 01:06:10;;;;;;;30.63;20.73;;;;;;;32.34;81.15;97409.09;4996949;28;20042;-70
2023/06/24 01:08:39;;;;;;;34.58;20.77;;;;;;;32.40;81.28;97415.03;4981539;28;20384;-70
2023/06/24 01:11:08;;;;;;;30.75;18.65;;;;;;;32.46;80.18;97424.53;4962380;28;20647;-70
2023/06/24 01:13:38;;;;;;;35.13;19.02;;;;;;;32.52;76.30;97426.63;4987268;28;20064;-71
2023/06/24 01:16:15;;;;;;;36.97;18.40;;;;;;;32.60;75.47;97432.22;4995458;28;20061;-71
2023/06/24 01:18:49;;;;;;;32.92;16.35;;;;;;;32.69;72.63;97443.75;4975907;28;20051;-70
2023/06/24 01:22:01;;;;;;;29.05;13.70;;;;;;;32.76;67.00;97443.84;5010797;28;20428;-70
2023/06/24 01:25:11;;;;;;;22.85;12.30;;;;;;;32.91;66.91;97437.44;4994763;28;20073;-70
2023/06/24 01:27:44;;;;;;;20.55;10.75;;;;;;;32.97;66.98;97441.44;5003230;28;20120;-70
2023/06/24 01:30:17;;;;;;;33.65;10.05;;;;;;;33.00;62.56;97445.41;5003893;28;20051;-70
2023/06/24 01:33:03;;;;;;;20.30;9.43;;;;;;;33.11;62.30;97443.59;5017826;28;20128;-70
2023/06/24 01:35:35;;;;;;;23.45;8.75;;;;;;;33.16;60.83;97446.03;5007581;28;20494;-69
2023/06/24 01:38:18;;;;;;;19.85;7.78;;;;;;;33.25;58.34;97446.56;5015996;28;20406;-70
2023/06/24 01:40:50;;;;;;;26.42;6.70;;;;;;;33.31;54.69;97454.13;5007358;28;20108;-70
2023/06/24 01:43:23;;;;;;;18.23;7.18;;;;;;;33.40;53.72;97457.38;5012015;28;20064;-70
2023/06/24 01:45:55;;;;;;;18.75;6.78;;;;;;;33.57;55.08;97475.25;5023774;28;20053;-69
2023/06/24 01:48:32;;;;;;;24.13;5.88;;;;;;;33.69;54.09;97488.75;5038888;28;20137;-68
2023/06/24 01:51:09;;;;;;;16.23;5.97;;;;;;;33.78;53.22;97488.47;5008925;28;20073;-70
2023/06/24 01:53:44;;;;;;;28.17;6.65;;;;;;;34.04;53.25;97485.63;5023673;28;20080;-69
2023/06/24 01:56:17;;;;;;;23.90;6.15;;;;;;;34.23;51.72;97480.00;5007230;28;20037;-70
2023/06/24 01:58:48;;;;;;;;;;;;;;;34.36;50.86;97485.22;5019168;28;20076;-70
2023/06/24 02:01:17;;;;;;;20.17;6.78;;;;;;;34.51;49.61;97487.75;5042527;28;19920;-70
2023/06/24 02:03:49;;;;;;;19.52;5.85;;;;;;;34.66;50.25;97494.97;5026196;28;20046;-71
2023/06/24 02:06:22;;;;;;;22.17;6.05;;;;;;;34.92;49.93;97496.72;5028891;28;20052;-70
2023/06/24 02:08:54;;;;;;;26.98;7.28;;;;;;;34.98;48.96;97494.44;5017257;28;20046;-72
2023/06/24 02:11:26;;;;;;;27.23;7.05;;;;;;;35.45;49.60;97490.84;5021939;28;20053;-70
2023/06/24 02:13:57;;;;;;;19.92;6.50;;;;;;;35.43;49.14;97498.69;5014825;28;20068;-69
2023/06/24 02:16:28;;;;;;;19.60;6.32;;;;;;;35.55;49.72;97510.16;5018312;28;20116;-72
2023/06/24 02:18:57;;;;;;;25.65;7.57;;;;;;;35.75;47.74;97512.66;5043117;28;20117;-70
2023/06/24 02:21:28;;;;;;;23.27;6.13;;;;;;;35.74;48.23;97509.13;5018298;28;20136;-71
2023/06/24 02:23:59;;;;;;;17.67;5.63;;;;;;;35.81;48.19;97513.84;5034299;28;20053;-69
2023/06/24 02:26:28;;;;;;;18.80;5.93;;;;;;;36.02;48.47;97522.22;5010890;28;20069;-70
2023/06/24 02:28:58;;;;;;;19.05;6.18;;;;;;;36.00;48.64;97516.31;5018846;28;20060;-70
2023/06/24 02:31:27;;;;;;;25.63;7.32;;;;;;;36.11;48.64;97522.66;5028494;28;20073;-69
2023/06/24 02:33:57;;;;;;;21.08;6.85;;;;;;;36.39;47.48;97525.50;5009828;28;20136;-70
2023/06/24 02:36:26;;;;;;;21.58;6.30;;;;;;;36.58;47.96;97518.84;5015303;28;20289;-70
2023/06/24 02:38:55;;;;;;;29.70;7.07;;;;;;;36.83;47.65;97518.88;5006906;28;20145;-70
2023/06/24 02:41:25;;;;;;;21.77;7.43;;;;;;;36.75;46.20;97531.09;5023996;28;20045;-70
2023/06/24 02:43:54;;;;;;;22.20;6.63;;;;;;;36.80;45.97;97530.72;5017714;28;20436;-71
2023/06/24 02:46:29;;;;;;;21.70;7.20;;;;;;;36.96;46.01;97533.09;5033535;28;20120;-71
2023/06/24 02:48:59;;;;;;;21.02;6.32;;;;;;;36.83;45.91;97533.47;5026728;28;20045;-70
2023/06/24 02:51:30;;;;;;;19.13;5.97;;;;;;;37.13;45.61;97538.66;5026576;28;20133;-70
2023/06/24 02:54:02;;;;;;;22.52;7.25;;;;;;;37.30;45.48;97543.38;5031543;28;20049;-69
2023/06/24 02:56:56;;;;;;;17.58;5.85;;;;;;;37.40;47.30;97540.97;5011103;28;20060;-68
2023/06/24 02:59:38;;;;;;;18.75;6.60;;;;;;;37.47;47.07;97540.97;5006140;28;20054;-68
2023/06/24 03:02:12;;;;;;;15.20;5.38;;;;;;;37.28;45.08;97544.94;5022938;28;20081;-68
2023/06/24 03:04:41;;;;;;;26.40;6.75;;;;;;;37.31;46.43;97550.44;5017901;28;20050;-69
2023/06/24 03:07:11;;;;;;;30.60;6.43;;;;;;;37.32;44.82;97557.56;5005749;28;20046;-68
2023/06/24 03:09:43;;;;;;;;;;;;;;;37.56;45.44;97561.50;5023130;28;20064;-69
2023/06/24 03:12:13;;;;;;;21.67;5.75;;;;;;;37.58;44.77;97558.31;5021967;28;19925;-68
2023/06/24 03:14:43;;;;;;;18.05;6.43;;;;;;;37.54;47.10;97549.25;5022966;28;20057;-68
2023/06/24 03:17:13;;;;;;;29.20;6.68;;;;;;;37.65;46.02;97538.97;5005796;28;20056;-69
2023/06/24 03:19:43;;;;;;;24.73;6.15;;;;;;;37.59;46.36;97538.59;5009187;28;20050;-69
2023/06/24 03:22:13;;;;;;;25.02;7.15;;;;;;;37.28;45.85;97522.84;4996440;28;20410;-67
2023/06/24 03:24:45;;;;;;;23.70;6.63;;;;;;;37.50;45.13;97523.56;5036276;28;20156;-68
2023/06/24 03:27:15;;;;;;;17.98;5.65;;;;;;;37.08;46.72;97524.44;5019537;28;20053;-69
2023/06/24 03:29:45;;;;;;;19.10;5.65;;;;;;;37.30;45.90;97524.03;5000488;28;20054;-65
2023/06/24 03:32:18;;;;;;;24.05;7.68;;;;;;;37.60;45.92;97522.81;5015833;28;20135;-68
2023/06/24 03:34:47;;;;;;;20.83;6.68;;;;;;;37.69;46.84;97526.72;5002901;28;20123;-71
2023/06/24 03:37:17;;;;;;;22.23;6.97;;;;;;;37.74;46.26;97520.78;5024194;28;20059;-69
2023/06/24 03:39:46;;;;;;;31.33;9.20;;;;;;;37.66;46.16;97530.28;5024223;28;20129;-69
2023/06/24 03:42:16;;;;;;;25.40;6.97;;;;;;;37.73;46.46;97516.44;5020347;28;20060;-68
2023/06/24 03:44:46;;;;;;;22.52;6.53;;;;;;;37.92;44.87;97515.19;5016661;28;20160;-68
2023/06/24 03:47:16;;;;;;;31.73;7.07;;;;;;;38.01;47.34;97521.09;5026068;28;20057;-68
2023/06/24 03:49:45;;;;;;;23.88;7.28;;;;;;;38.02;46.20;97522.66;5009996;28;20103;-72
2023/06/24 03:52:15;;;;;;;81.25;10.32;;;;;;;38.13;46.02;97515.13;5034912;28;20705;-71
2023/06/24 03:54:46;;;;;;;28.63;7.30;;;;;;;38.38;45.61;97516.94;5001880;28;20645;-67
2023/06/24 03:57:15;;;;;;;17.65;6.30;;;;;;;38.48;43.85;97511.38;5015490;28;20049;-67
2023/06/24 03:59:45;;;;;;;20.42;6.90;;;;;;;38.03;45.29;97512.38;5019190;28;20060;-67
2023/06/24 04:02:15;;;;;;;17.88;6.68;;;;;;;38.32;45.33;97521.34;5023250;28;20137;-70
2023/06/24 04:04:50;;;;;;;23.33;6.13;;;;;;;38.32;43.02;97518.56;5036876;28;20053;-72
2023/06/24 04:07:27;;;;;;;18.10;6.25;;;;;;;38.45;44.89;97528.00;5032649;28;20049;-69
2023/06/24 04:09:57;;;;;;;22.02;6.88;;;;;;;38.15;45.59;97514.72;5015673;28;20041;-71
2023/06/24 04:12:27;;;;;;;23.63;6.80;;;;;;;38.46;45.74;97519.28;5002633;28;20078;-68
2023/06/24 04:14:56;;;;;;;29.27;7.20;;;;;;;38.04;44.48;97513.97;5007135;28;20500;-68
2023/06/24 04:17:26;;;;;;;17.45;6.90;;;;;;;37.68;44.85;97519.63;4998920;28;20627;-69
2023/06/24 04:19:59;;;;;;;;;;;;;;;37.76;48.87;97512.06;5012879;28;20041;-68
2023/06/24 04:22:28;;;;;;;27.65;7.03;;;;;;;38.19;47.63;97507.97;5008700;28;19922;-68
2023/06/24 04:25:05;;;;;;;23.25;6.88;;;;;;;38.24;45.04;97497.69;5028907;28;20462;-68
2023/06/24 04:27:36;;;;;;;21.95;6.35;;;;;;;38.30;45.35;97502.38;5004611;28;20079;-67
2023/06/24 04:30:08;;;;;;;21.13;7.55;;;;;;;38.60;46.83;97487.97;5052784;28;20045;-67
2023/06/24 04:32:38;;;;;;;25.85;6.75;;;;;;;38.27;44.35;97489.34;5015252;28;20473;-67
2023/06/24 04:35:08;;;;;;;22.73;6.35;;;;;;;38.44;46.40;97487.69;5035026;28;20045;-67
2023/06/24 04:37:38;;;;;;;21.23;6.20;;;;;;;38.63;44.56;97489.94;5026684;28;20088;-68
2023/06/24 04:40:10;;;;;;;27.17;6.47;;;;;;;37.95;46.37;97495.03;5032095;28;20060;-69
2023/06/24 04:42:39;;;;;;;27.02;8.02;;;;;;;38.03;48.06;97491.06;5015989;28;20037;-71
2023/06/24 04:45:09;;;;;;;25.30;6.20;;;;;;;38.02;44.78;97497.00;5025520;28;20111;-69
2023/06/24 04:47:39;;;;;;;23.45;6.00;;;;;;;38.01;44.04;97496.22;5025735;28;20080;-68
2023/06/24 04:50:12;;;;;;;23.02;6.63;;;;;;;38.34;45.59;97499.56;5025131;28;20075;-68
2023/06/24 04:52:41;;;;;;;;;;;;;;;38.44;45.59;97496.78;5026278;28;20077;-69
2023/06/24 04:55:10;;;;;;;23.10;6.15;;;;;;;38.67;45.15;97499.00;5025598;28;19935;-69
2023/06/24 04:57:42;;;;;;;24.95;7.65;;;;;;;38.84;46.20;97500.03;5049907;28;20053;-69
2023/06/24 05:00:12;;;;;;;22.83;6.68;;;;;;;38.43;42.22;97489.66;5024869;28;20053;-69
2023/06/24 05:02:42;;;;;;;29.35;6.15;;;;;;;38.76;43.92;97495.75;5025487;28;20053;-69
2023/06/24 05:05:11;;;;;;;18.92;6.25;;;;;;;38.80;43.30;97486.22;5034028;28;20048;-68
2023/06/24 05:07:41;;;;;;;24.10;7.03;;;;;;;38.66;44.48;97497.41;5030016;28;20504;-70
2023/06/24 05:10:10;;;;;;;19.50;6.13;;;;;;;38.91;43.29;97492.47;5025004;28;20423;-69
2023/06/24 05:12:40;;;;;;;30.17;6.75;;;;;;;39.09;46.09;97489.56;5046040;28;20041;-68
2023/06/24 05:15:11;;;;;;;27.98;7.75;;;;;;;39.66;43.09;97484.22;5024510;28;20060;-68
2023/06/24 05:17:41;;;;;;;19.85;6.57;;;;;;;39.26;41.78;97471.19;5025117;28;20042;-69
2023/06/24 05:20:10;;;;;;;23.02;6.10;;;;;;;39.64;45.11;97470.00;5024737;28;20123;-68
2023/06/24 05:22:41;;;;;;;18.95;5.47;;;;;;;39.90;42.25;97471.28;5024672;28;20045;-69
2023/06/24 05:25:10;;;;;;;22.33;6.90;;;;;;;39.62;42.27;97464.06;5025156;28;20065;-68
2023/06/24 05:27:44;;;;;;;22.48;6.85;;;;;;;39.75;41.90;97467.91;5024233;28;20128;-70
2023/06/24 05:30:17;;;;;;;23.00;6.53;;;;;;;39.85;40.33;97464.22;5008391;28;20045;-70
2023/06/24 05:32:47;;;;;;;17.70;5.57;;;;;;;39.81;41.92;97462.69;5027987;28;20065;-69
2023/06/24 05:35:18;;;;;;;29.95;6.22;;;;;;;39.48;40.63;97461.44;5029030;28;20041;-71
2023/06/24 05:37:47;;;;;;;21.55;6.28;;;;;;;39.69;43.06;97455.69;5028836;28;20496;-70
2023/06/24 05:40:19;;;;;;;20.65;5.43;;;;;;;40.13;42.13;97473.34;5036848;28;20041;-71
2023/06/24 05:42:50;;;;;;;21.75;6.07;;;;;;;40.07;43.19;97466.69;5028438;28;20060;-70
2023/06/24 05:45:19;;;;;;;43.08;7.22;;;;;;;39.88;44.01;97474.47;5027234;28;20192;-69
2023/06/24 05:47:48;;;;;;;20.42;6.70;;;;;;;39.80;43.25;97474.97;5028435;28;20580;-69
2023/06/24 05:50:18;;;;;;;21.83;5.80;;;;;;;39.90;45.52;97474.84;5030821;28;20068;-69
2023/06/24 05:52:48;;;;;;;25.83;6.40;;;;;;;40.17;44.73;97474.91;5027245;28;20152;-70
2023/06/24 05:55:18;;;;;;;24.50;6.22;;;;;;;40.08;43.04;97473.81;5028335;28;20045;-69
2023/06/24 05:57:47;;;;;;;20.27;6.13;;;;;;;40.07;44.73;97469.47;5024621;28;20045;-69
2023/06/24 06:00:18;;;;;;;31.95;6.68;;;;;;;40.03;41.02;97463.97;5027190;28;20076;-70
2023/06/24 06:02:48;;;;;;;25.48;5.70;;;;;;;40.12;41.88;97463.44;5007770;28;20078;-69
2023/06/24 06:05:18;;;;;;;25.20;7.03;;;;;;;39.66;39.98;97448.16;5016640;28;20050;-69
2023/06/24 06:07:48;;;;;;;31.15;6.53;;;;;;;40.12;41.94;97457.91;5030169;28;20077;-70
2023/06/24 06:10:17;;;;;;;24.48;6.43;;;;;;;40.03;43.01;97441.00;5016866;28;20741;-70
2023/06/24 06:12:47;;;;;;;28.30;7.40;;;;;;;39.80;42.16;97455.56;5022886;28;20136;-69
2023/06/24 06:15:17;;;;;;;16.77;5.68;;;;;;;39.69;41.70;97454.88;5027409;28;20131;-70
2023/06/24 06:17:47;;;;;;;19.60;5.63;;;;;;;39.50;42.30;97461.84;5027285;28;20064;-70
2023/06/24 06:20:17;;;;;;;20.77;5.63;;;;;;;39.29;42.04;97453.75;5009174;28;20048;-69
2023/06/24 06:22:47;;;;;;;22.75;5.63;;;;;;;39.50;44.83;97450.75;5018177;28;20061;-71
2023/06/24 06:25:16;;;;;;;15.65;5.88;;;;;;;39.72;47.90;97460.38;5009378;28;20074;-70
2023/06/24 06:27:46;;;;;;;20.02;6.00;;;;;;;39.65;44.19;97452.16;5018134;28;20528;-69
2023/06/24 06:30:16;;;;;;;18.02;6.28;;;;;;;39.45;43.56;97459.53;5014590;28;20064;-69
2023/06/24 06:32:46;;;;;;;25.45;5.88;;;;;;;39.21;42.56;97455.81;5018080;28;20147;-71
2023/06/24 06:35:15;;;;;;;17.52;5.40;;;;;;;39.39;43.62;97456.41;5013628;28;20084;-71
2023/06/24 06:37:51;;;;;;;21.13;5.93;;;;;;;39.31;42.16;97446.59;5017916;28;20045;-70
2023/06/24 06:40:26;;;;;;;22.02;5.75;;;;;;;39.63;44.89;97443.47;5011611;28;20045;-70
2023/06/24 06:42:56;;;;;;;20.77;5.53;;;;;;;39.69;44.54;97441.81;5007564;28;20045;-69
2023/06/24 06:45:26;;;;;;;24.88;5.80;;;;;;;39.72;42.76;97440.97;5002771;28;20057;-70
2023/06/24 06:47:59;;;;;;;22.92;7.07;;;;;;;39.79;44.08;97451.22;5002457;28;20436;-70
2023/06/24 06:50:28;;;;;;;27.52;6.43;;;;;;;39.45;43.75;97442.88;5017512;28;20160;-69
2023/06/24 06:52:58;;;;;;;20.02;5.28;;;;;;;39.45;40.74;97448.44;5016104;28;20650;-70
2023/06/24 06:55:27;;;;;;;25.77;5.65;;;;;;;39.76;41.82;97449.28;5015491;28;20068;-70
2023/06/24 06:57:57;;;;;;;23.00;6.72;;;;;;;39.88;43.11;97449.50;5002349;28;20385;-70
2023/06/24 07:00:27;;;;;;;25.08;6.13;;;;;;;39.64;45.49;97456.13;5016264;28;20455;-72
2023/06/24 07:02:57;;;;;;;22.60;5.25;;;;;;;39.30;45.45;97445.03;5001416;28;20085;-70
2023/06/24 07:05:27;;;;;;;18.13;6.35;;;;;;;39.16;42.54;97438.84;4976480;28;20363;-69
2023/06/24 07:07:56;;;;;;;20.80;5.40;;;;;;;39.05;41.86;97445.28;4967570;28;20042;-70
2023/06/24 07:10:26;;;;;;;17.55;4.97;;;;;;;39.12;45.07;97451.94;4986827;28;20115;-70
2023/06/24 07:12:58;;;;;;;20.05;5.75;;;;;;;39.09;42.22;97434.16;5003902;28;20134;-71
2023/06/24 07:15:28;;;;;;;24.05;5.30;;;;;;;39.35;43.32;97432.69;5004680;28;20180;-71
2023/06/24 07:17:57;;;;;;;20.73;6.03;;;;;;;39.36;44.75;97425.97;4988951;28;20504;-69
2023/06/24 07:20:27;;;;;;;22.88;5.50;;;;;;;39.25;44.04;97423.31;5003483;28;20054;-72
2023/06/24 07:22:57;;;;;;;21.48;6.15;;;;;;;39.19;40.50;97430.50;5017822;28;20061;-68
2023/06/24 07:25:28;;;;;;;21.40;5.55;;;;;;;38.95;43.09;97423.22;5019818;28;20049;-72
2023/06/24 07:27:57;;;;;;;18.10;5.25;;;;;;;38.84;42.13;97422.50;5005716;28;20143;-71
2023/06/24 07:30:30;;;;;;;17.20;5.53;;;;;;;38.77;45.07;97423.34;5004860;28;20045;-75
2023/06/24 07:33:05;;;;;;;16.80;4.82;;;;;;;38.79;42.93;97417.41;5018759;28;20057;-71
2023/06/24 07:35:35;;;;;;;16.52;5.18;;;;;;;38.78;43.28;97416.63;5022288;28;20107;-74
2023/06/24 07:38:05;;;;;;;15.55;4.70;;;;;;;38.96;39.58;97422.81;5021997;28;20053;-69
2023/06/24 07:40:34;;;;;;;15.07;5.10;;;;;;;38.93;38.00;97415.34;5014462;28;20053;-71
2023/06/24 07:43:04;;;;;;;20.60;4.78;;;;;;;38.85;40.57;97416.56;5019439;28;20056;-72
2023/06/24 07:45:34;;;;;;;20.58;6.70;;;;;;;38.83;42.86;97413.41;5020412;28;20360;-72
2023/06/24 07:48:04;;;;;;;17.60;5.38;;;;;;;38.72;41.32;97409.97;5022624;28;20140;-72
2023/06/24 07:50:35;;;;;;;18.10;4.88;;;;;;;38.80;43.35;97413.44;5039091;28;20515;-70
2023/06/24 07:53:05;;;;;;;12.60;4.50;;;;;;;38.89;44.39;97402.72;5024795;28;20745;-72
2023/06/24 07:55:35;;;;;;;25.17;6.45;;;;;;;38.80;41.19;97388.53;5024895;28;20126;-71
2023/06/24 07:58:06;;;;;;;17.35;4.80;;;;;;;38.70;40.82;97392.97;5025400;28;20051;-69
2023/06/24 08:00:36;;;;;;;18.48;5.57;;;;;;;38.53;39.75;97378.09;5024713;28;20061;-70
2023/06/24 08:03:07;;;;;;;19.40;5.13;;;;;;;38.38;46.82;97378.59;5021867;28;20055;-75
2023/06/24 08:05:39;;;;;;;20.45;6.00;;;;;;;38.20;43.12;97373.19;5021278;28;20053;-65
2023/06/24 08:08:09;;;;;;;20.80;5.55;;;;;;;38.26;47.06;97370.78;4994271;28;20171;-69
2023/06/24 08:10:45;;;;;;;16.45;5.32;;;;;;;38.62;41.52;97363.78;4995293;28;20053;-72
2023/06/24 08:13:16;;;;;;;25.90;6.10;;;;;;;38.81;41.51;97363.22;5014838;28;20861;-68
2023/06/24 08:15:46;;;;;;;13.45;5.45;;;;;;;38.69;42.09;97349.88;5024793;28;20081;-70
2023/06/24 08:18:15;;;;;;;21.33;5.28;;;;;;;38.87;42.30;97356.03;5006477;28;20065;-73
2023/06/24 08:20:45;;;;;;;18.88;5.65;;;;;;;38.80;43.86;97352.53;5014101;28;20057;-68
2023/06/24 08:23:15;;;;;;;21.27;5.28;;;;;;;38.61;40.70;97360.22;5016294;28;20060;-72
2023/06/24 08:25:45;;;;;;;21.35;5.63;;;;;;;38.49;41.84;97360.75;5025005;28;20053;-70
2023/06/24 08:28:14;;;;;;;23.38;6.00;;;;;;;38.71;42.10;97347.50;5022388;28;20049;-71
2023/06/24 08:30:44;;;;;;;23.83;6.88;;;;;;;38.75;40.73;97336.38;5022101;28;20049;-68
2023/06/24 08:33:15;;;;;;;22.42;5.78;;;;;;;38.83;41.92;97340.63;5021779;28;20064;-71
2023/06/24 08:35:45;;;;;;;22.58;6.35;;;;;;;38.66;43.11;97339.63;5028614;28;20535;-72
2023/06/24 08:38:14;;;;;;;21.17;5.97;;;;;;;38.61;47.10;97326.22;5021225;28;20664;-67
2023/06/24 08:40:46;;;;;;;21.85;6.45;;;;;;;38.60;44.71;97325.44;5021781;28;20115;-70
2023/06/24 08:43:16;;;;;;;17.70;5.65;;;;;;;38.68;43.56;97317.88;5014004;28;20060;-68
2023/06/24 08:45:47;;;;;;;21.02;5.88;;;;;;;38.80;46.73;97313.78;5014608;28;20046;-69
2023/06/24 08:48:18;;;;;;;22.23;6.60;;;;;;;38.80;43.56;97313.78;5007449;28;20049;-67
2023/06/24 08:50:52;;;;;;;16.70;5.90;;;;;;;38.85;44.35;97300.28;5023685;28;20046;-68
2023/06/24 08:53:23;;;;;;;20.85;8.13;;;;;;;38.66;41.95;97295.34;5005682;28;20224;-72
2023/06/24 08:55:54;;;;;;;17.27;6.18;;;;;;;38.69;46.27;97293.72;4998608;28;20647;-67
2023/06/24 08:58:23;;;;;;;17.00;6.05;;;;;;;38.75;45.21;97292.09;5013174;28;20362;-67
2023/06/24 09:00:53;;;;;;;25.63;6.78;;;;;;;38.73;42.93;97294.50;5017932;28;20544;-68
2023/06/24 09:03:23;;;;;;;23.08;5.65;;;;;;;38.64;43.40;97290.22;5018175;28;20129;-69
2023/06/24 09:05:53;;;;;;;21.63;5.75;;;;;;;38.48;42.08;97284.44;5024803;28;20080;-69
2023/06/24 09:08:23;;;;;;;18.55;6.82;;;;;;;38.58;42.74;97282.78;5016252;28;20050;-69
2023/06/24 09:10:55;;;;;;;35.65;7.57;;;;;;;38.61;46.96;97277.19;5012783;28;20495;-68
2023/06/24 09:13:35;;;;;;;22.50;6.77;;;;;;;38.34;43.07;97276.25;5024325;28;20048;-71
2023/06/24 09:16:16;;;;;;;18.75;5.43;;;;;;;38.41;43.37;97278.19;4991132;28;20287;-69
2023/06/24 09:18:53;;;;;;;19.77;5.72;;;;;;;38.33;43.68;97282.22;5000031;28;20050;-68
2023/06/24 09:21:24;;;;;;;21.85;5.40;;;;;;;38.30;42.30;97278.28;5014091;28;20050;-68
2023/06/24 09:23:56;;;;;;;29.77;5.82;;;;;;;38.14;42.11;97270.53;5021098;28;20555;-66
2023/06/24 09:26:27;;;;;;;22.23;7.32;;;;;;;38.13;42.21;97259.88;5019571;28;20063;-66
2023/06/24 09:28:58;;;;;;;28.52;6.00;;;;;;;38.12;44.97;97266.59;5019901;28;20049;-66
2023/06/24 09:31:28;;;;;;;23.35;5.88;;;;;;;38.05;44.99;97264.69;5002966;28;20068;-67
2023/06/24 09:33:58;;;;;;;21.55;5.63;;;;;;;38.02;44.85;97271.00;5008451;28;20052;-72
2023/06/24 09:36:28;;;;;;;25.30;6.40;;;;;;;37.98;43.03;97261.97;4984963;28;20058;-68
2023/06/24 09:39:07;;;;;;;25.42;6.07;;;;;;;38.05;42.90;97255.59;4978282;28;20038;-67
2023/06/24 09:42:01;;;;;;;22.48;5.30;;;;;;;38.00;41.66;97258.81;4992371;28;20041;-68
2023/06/24 09:44:31;;;;;;;21.20;5.80;;;;;;;37.93;43.13;97254.06;5000176;28;20244;-68
2023/06/24 09:47:02;;;;;;;24.90;6.03;;;;;;;37.93;42.94;97251.31;5029115;28;20591;-70
2023/06/24 09:49:31;;;;;;;17.38;4.43;;;;;;;37.88;43.40;97251.78;5003783;28;20112;-67
2023/06/24 09:52:04;;;;;;;23.63;5.25;;;;;;;37.74;42.05;97249.91;4992828;28;20056;-68
2023/06/24 09:54:36;;;;;;;18.23;4.80;;;;;;;37.77;41.17;97243.56;4996139;28;20614;-67
2023/06/24 09:57:09;;;;;;;18.45;5.32;;;;;;;37.77;40.57;97240.78;5015196;28;20058;-68
2023/06/24 09:59:41;;;;;;;26.25;5.63;;;;;;;37.85;42.37;97241.50;5012330;28;20519;-68
2023/06/24 10:02:15;;;;;;;24.10;5.57;;;;;;;37.95;41.74;97237.88;5012282;28;20594;-68
2023/06/24 10:04:47;;;;;;;21.10;4.90;;;;;;;38.01;42.74;97236.28;4999301;28;20045;-67
2023/06/24 10:07:17;;;;;;;21.30;5.38;;;;;;;38.05;41.08;97231.50;4998964;28;20037;-68
2023/06/24 10:09:47;;;;;;;22.20;6.38;;;;;;;38.00;41.82;97225.63;5001416;28;20045;-67
2023/06/24 10:12:17;;;;;;;16.98;5.10;;;;;;;38.06;40.54;97222.00;5012973;28;20049;-67
2023/06/24 10:14:47;;;;;;;15.43;5.68;;;;;;;38.14;39.40;97217.19;5028467;28;20046;-67
2023/06/24 10:17:17;;;;;;;17.73;5.10;;;;;;;38.21;38.49;97208.81;5019999;28;20050;-67
2023/06/24 10:19:47;;;;;;;15.55;5.00;;;;;;;38.34;39.32;97214.59;5016217;28;20052;-67
2023/06/24 10:22:16;;;;;;;19.42;5.35;;;;;;;38.35;37.60;97207.88;5017962;28;20049;-66
2023/06/24 10:24:48;;;;;;;19.30;5.82;;;;;;;38.43;40.52;97207.41;5022330;28;20046;-67
2023/06/24 10:27:22;;;;;;;17.30;4.57;;;;;;;38.45;39.54;97198.72;5036160;28;20045;-68
2023/06/24 10:29:53;;;;;;;20.25;5.60;;;;;;;38.45;40.30;97201.47;5025574;28;20536;-67
2023/06/24 10:32:24;;;;;;;18.38;6.35;;;;;;;38.41;39.42;97193.19;5017888;28;20069;-68
2023/06/24 10:34:56;;;;;;;19.98;6.05;;;;;;;38.41;39.34;97197.94;5003665;28;20373;-67
2023/06/24 10:37:30;;;;;;;18.00;5.75;;;;;;;38.46;38.22;97200.28;5006380;28;20167;-68
2023/06/24 10:40:01;;;;;;;18.08;4.72;;;;;;;38.48;40.15;97195.91;5009698;28;20115;-67
2023/06/24 10:42:42;;;;;;;22.23;5.72;;;;;;;38.46;39.55;97192.00;5015482;28;20053;-67
2023/06/24 10:45:12;;;;;;;20.55;6.10;;;;;;;38.41;38.91;97195.19;5031864;28;20655;-67
2023/06/24 10:47:44;;;;;;;16.10;6.20;;;;;;;38.39;40.27;97192.81;5011373;28;21089;-67
2023/06/24 10:50:26;;;;;;;14.48;5.18;;;;;;;38.38;39.74;97187.69;5000692;28;20500;-67
2023/06/24 10:52:57;;;;;;;12.25;5.57;;;;;;;38.40;40.92;97185.31;5000347;28;20037;-68
2023/06/24 10:55:27;;;;;;;19.27;5.90;;;;;;;38.40;40.92;97183.31;4998698;28;20061;-68
2023/06/24 10:58:08;;;;;;;28.02;6.63;;;;;;;38.40;40.11;97180.56;5014272;28;20453;-67
2023/06/24 11:00:41;;;;;;;22.38;5.80;;;;;;;38.35;41.72;97180.22;5007190;28;20502;-67
2023/06/24 11:03:13;;;;;;;21.00;6.05;;;;;;;38.36;41.39;97179.81;5037281;28;20069;-68
2023/06/24 11:05:44;;;;;;;18.73;5.88;;;;;;;38.40;40.26;97174.22;5003280;28;20045;-67
2023/06/24 11:08:14;;;;;;;21.63;6.53;;;;;;;38.38;39.48;97163.56;5007222;28;20045;-67
2023/06/24 11:10:48;;;;;;;22.15;6.35;;;;;;;38.41;38.85;97170.28;5016709;28;20074;-68
2023/06/24 11:13:21;;;;;;;24.10;6.10;;;;;;;38.38;40.30;97162.78;5015358;28;20125;-67
2023/06/24 11:15:53;;;;;;;17.25;5.22;;;;;;;38.33;42.15;97166.03;5015371;28;20041;-68
2023/06/24 11:18:23;;;;;;;18.90;6.30;;;;;;;38.28;41.63;97170.03;5016393;28;20045;-67
2023/06/24 11:20:54;;;;;;;20.50;6.05;;;;;;;38.36;40.21;97156.88;5013789;28;20049;-66
2023/06/24 11:23:26;;;;;;;15.00;5.07;;;;;;;38.38;39.27;97160.00;5011317;28;20059;-67
2023/06/24 11:26:00;;;;;;;21.45;6.75;;;;;;;38.35;39.30;97149.78;5018353;28;20041;-67
2023/06/24 11:28:32;;;;;;;16.95;5.75;;;;;;;38.31;41.49;97149.03;5016054;28;20104;-68
2023/06/24 11:31:10;;;;;;;17.88;5.15;;;;;;;38.24;41.12;97143.59;5018847;28;20060;-68
2023/06/24 11:33:39;;;;;;;17.55;5.72;;;;;;;38.24;39.91;97140.84;5015927;28;20486;-68
2023/06/24 11:36:10;;;;;;;16.73;4.65;;;;;;;38.26;40.27;97135.66;5017160;28;20053;-68
2023/06/24 11:38:40;;;;;;;16.27;5.05;;;;;;;38.18;40.65;97130.22;5017069;28;20042;-68
2023/06/24 11:41:09;;;;;;;22.13;5.80;;;;;;;38.19;40.88;97133.78;5015489;28;20443;-68
2023/06/24 11:43:45;;;;;;;17.27;4.80;;;;;;;38.12;41.36;97126.31;5014414;28;20054;-68